createdAt,value
2023-04-16T00:00:47.598Z,98.87
2023-04-16T00:01:47.614Z,98.99
2023-04-16T00:02:47.703Z,98.95
2023-04-16T00:03:47.850Z,98.92
2023-04-16T00:04:47.611Z,98.90
2023-04-16T00:05:47.537Z,98.79
2023-04-16T00:06:47.531Z,98.65
2023-04-16T00:07:47.515Z,98.81
2023-04-16T00:08:47.483Z,98.94
2023-04-16T00:09:47.477Z,99.00
2023-04-16T00:11:08.449Z,99.00
2023-04-16T00:11:47.474Z,99.04
2023-04-16T00:12:47.460Z,99.03
2023-04-16T00:13:47.425Z,98.80
2023-04-16T00:14:47.433Z,98.82
2023-04-16T00:15:47.388Z,98.85
2023-04-16T00:16:47.474Z,98.78
2023-04-16T00:17:47.425Z,98.77
2023-04-16T00:18:47.436Z,98.82
2023-04-16T00:19:47.332Z,98.74
2023-04-16T00:20:47.353Z,98.84
2023-04-16T00:21:47.383Z,98.82
2023-04-16T00:22:47.337Z,98.81
2023-04-16T00:23:47.296Z,98.68
2023-04-16T00:24:47.299Z,98.76
2023-04-16T00:25:47.259Z,98.84
2023-04-16T00:26:47.309Z,98.90
2023-04-16T00:27:47.304Z,98.96
2023-04-16T00:28:47.253Z,99.03
2023-04-16T00:29:47.230Z,99.11
2023-04-16T00:30:47.235Z,99.15
2023-04-16T00:31:47.203Z,99.24
2023-04-16T00:32:47.289Z,99.26
2023-04-16T00:33:47.197Z,99.30
2023-04-16T00:34:47.155Z,99.32
2023-04-16T00:35:47.151Z,99.33
2023-04-16T00:36:47.161Z,99.37
2023-04-16T00:37:47.136Z,99.37
2023-04-16T00:38:47.111Z,99.25
2023-04-16T00:39:47.108Z,99.23
2023-04-16T00:40:47.101Z,99.27
2023-04-16T00:41:47.110Z,99.34
2023-04-16T00:42:47.059Z,99.38
2023-04-16T00:43:47.058Z,99.44
2023-04-16T00:44:47.055Z,99.51
2023-04-16T00:45:47.088Z,99.53
2023-04-16T00:46:47.216Z,99.57
2023-04-16T00:47:47.053Z,99.65
2023-04-16T00:48:47.022Z,99.63
2023-04-16T00:49:47.012Z,99.61
2023-04-16T00:50:46.975Z,99.62
2023-04-16T00:51:46.949Z,99.63
2023-04-16T00:52:46.928Z,99.65
2023-04-16T00:53:46.936Z,99.67
2023-04-16T00:54:46.913Z,99.65
2023-04-16T00:55:46.937Z,99.66
2023-04-16T00:56:46.913Z,99.69
2023-04-16T00:57:46.886Z,99.73
2023-04-16T00:58:46.846Z,99.75
2023-04-16T00:59:46.835Z,99.78
2023-04-16T01:00:46.852Z,99.76
2023-04-16T01:01:46.899Z,99.76
2023-04-16T01:02:46.939Z,99.78
2023-04-16T01:03:46.886Z,99.81
2023-04-16T01:04:46.798Z,99.82
2023-04-16T01:05:46.762Z,99.85
2023-04-16T01:06:46.778Z,99.84
2023-04-16T01:07:46.763Z,99.83
2023-04-16T01:08:46.765Z,99.85
2023-04-16T01:09:46.723Z,99.86
2023-04-16T01:10:46.726Z,99.90
2023-04-16T01:11:46.683Z,99.90
2023-04-16T01:12:46.710Z,99.95
2023-04-16T01:13:46.669Z,99.96
2023-04-16T01:14:46.657Z,99.95
2023-04-16T01:15:46.684Z,99.97
2023-04-16T01:16:46.647Z,100.00
2023-04-16T01:17:46.715Z,100.00
2023-04-16T01:18:46.637Z,100.00
2023-04-16T01:19:46.599Z,100.00
2023-04-16T01:20:46.599Z,100.00
2023-04-16T01:21:46.587Z,100.00
2023-04-16T01:22:46.549Z,100.00
2023-04-16T01:23:46.557Z,100.00
2023-04-16T01:24:46.571Z,100.00
2023-04-16T01:25:46.523Z,100.00
2023-04-16T01:26:46.530Z,100.00
2023-04-16T01:27:46.494Z,100.00
2023-04-16T01:28:46.497Z,100.00
2023-04-16T01:29:46.459Z,100.00
2023-04-16T01:30:46.495Z,100.00
2023-04-16T01:31:46.530Z,100.00
2023-04-16T01:32:46.481Z,100.00
2023-04-16T01:33:46.419Z,100.00
2023-04-16T01:34:46.451Z,100.00
2023-04-16T01:35:46.401Z,100.00
2023-04-16T01:36:46.435Z,100.00
2023-04-16T01:37:46.406Z,100.00
2023-04-16T01:38:46.364Z,100.00
2023-04-16T01:39:46.354Z,100.00
2023-04-16T01:40:46.330Z,100.00
2023-04-16T01:41:46.312Z,100.00
2023-04-16T01:42:46.333Z,100.00
2023-04-16T01:43:46.300Z,100.00
2023-04-16T01:44:46.302Z,100.00
2023-04-16T01:45:46.274Z,100.00
2023-04-16T01:46:46.276Z,100.00
2023-04-16T01:47:46.274Z,100.00
2023-04-16T01:48:46.271Z,100.00
2023-04-16T01:49:46.234Z,100.00
2023-04-16T01:50:46.209Z,100.00
2023-04-16T01:51:46.196Z,100.00
2023-04-16T01:52:46.220Z,100.00
2023-04-16T01:53:46.162Z,100.00
2023-04-16T01:54:46.174Z,100.00
2023-04-16T01:55:46.142Z,100.00
2023-04-16T01:56:46.157Z,100.00
2023-04-16T01:57:46.136Z,100.00
2023-04-16T01:58:46.122Z,100.00
2023-04-16T01:59:46.115Z,100.00
2023-04-16T02:00:46.127Z,100.00
2023-04-16T02:01:46.109Z,100.00
2023-04-16T02:02:46.240Z,100.00
2023-04-16T02:03:46.187Z,100.00
2023-04-16T02:04:46.078Z,100.00
2023-04-16T02:05:46.025Z,100.00
2023-04-16T02:06:46.010Z,100.00
2023-04-16T02:07:46.039Z,100.00
2023-04-16T02:08:45.995Z,100.00
2023-04-16T02:09:45.984Z,100.00
2023-04-16T02:10:45.965Z,100.00
2023-04-16T02:11:45.952Z,100.00
2023-04-16T02:12:45.961Z,100.00
2023-04-16T02:13:45.965Z,100.00
2023-04-16T02:14:45.903Z,100.00
2023-04-16T02:15:45.901Z,100.00
2023-04-16T02:16:45.920Z,100.00
2023-04-16T02:17:45.902Z,100.00
2023-04-16T02:18:45.901Z,100.00
2023-04-16T02:19:45.839Z,100.00
2023-04-16T02:20:45.838Z,100.00
2023-04-16T02:21:45.828Z,100.00
2023-04-16T02:22:45.872Z,100.00
2023-04-16T02:23:45.808Z,100.00
2023-04-16T02:24:45.795Z,100.00
2023-04-16T02:25:45.771Z,100.00
2023-04-16T02:26:45.741Z,100.00
2023-04-16T02:27:45.768Z,100.00
2023-04-16T02:28:45.772Z,100.00
2023-04-16T02:29:45.742Z,100.00
2023-04-16T02:30:45.709Z,100.00
2023-04-16T02:31:45.872Z,100.00
2023-04-16T02:32:45.682Z,100.00
2023-04-16T02:33:45.643Z,100.00
2023-04-16T02:34:45.650Z,100.00
2023-04-16T02:35:45.665Z,100.00
2023-04-16T02:36:45.617Z,100.00
2023-04-16T02:37:45.597Z,100.00
2023-04-16T02:38:45.611Z,100.00
2023-04-16T02:39:45.592Z,100.00
2023-04-16T02:40:45.646Z,100.00
2023-04-16T02:41:45.573Z,100.00
2023-04-16T02:42:45.530Z,100.00
2023-04-16T02:43:45.510Z,100.00
2023-04-16T02:44:45.533Z,100.00
2023-04-16T02:45:45.823Z,100.00
2023-04-16T02:46:45.487Z,100.00
2023-04-16T02:47:45.523Z,100.00
2023-04-16T02:48:45.449Z,100.00
2023-04-16T02:49:45.455Z,100.00
2023-04-16T02:50:45.462Z,100.00
2023-04-16T02:51:45.453Z,100.00
2023-04-16T02:52:45.422Z,100.00
2023-04-16T02:53:45.421Z,100.00
2023-04-16T02:54:45.387Z,100.00
2023-04-16T02:55:45.376Z,100.00
2023-04-16T02:56:45.387Z,100.00
2023-04-16T02:57:45.336Z,100.00
2023-04-16T02:58:45.320Z,100.00
2023-04-16T02:59:45.566Z,100.00
2023-04-16T03:00:45.319Z,100.00
2023-04-16T03:01:45.350Z,100.00
2023-04-16T03:02:45.409Z,100.00
2023-04-16T03:03:45.317Z,100.00
2023-04-16T03:04:45.259Z,100.00
2023-04-16T03:05:45.296Z,100.00
2023-04-16T03:06:45.229Z,100.00
2023-04-16T03:07:45.215Z,100.00
2023-04-16T03:08:45.217Z,100.00
2023-04-16T03:09:45.176Z,100.00
2023-04-16T03:10:45.194Z,100.00
2023-04-16T03:11:45.162Z,100.00
2023-04-16T03:12:45.150Z,100.00
2023-04-16T03:13:45.138Z,100.00
2023-04-16T03:14:45.125Z,100.00
2023-04-16T03:15:45.163Z,100.00
2023-04-16T03:16:45.098Z,100.00
2023-04-16T03:17:45.163Z,100.00
2023-04-16T03:18:45.072Z,100.00
2023-04-16T03:19:45.063Z,100.00
2023-04-16T03:20:45.085Z,100.00
2023-04-16T03:21:45.045Z,100.00
2023-04-16T03:22:45.056Z,100.00
2023-04-16T03:23:45.021Z,100.00
2023-04-16T03:24:45.007Z,100.00
2023-04-16T03:25:44.988Z,100.00
2023-04-16T03:26:45.013Z,100.00
2023-04-16T03:27:44.994Z,100.00
2023-04-16T03:28:44.953Z,100.00
2023-04-16T03:29:44.953Z,100.00
2023-04-16T03:30:44.936Z,100.00
2023-04-16T03:31:44.933Z,100.00
2023-04-16T03:32:45.056Z,100.00
2023-04-16T03:33:44.878Z,100.00
2023-04-16T03:34:44.893Z,100.00
2023-04-16T03:35:44.900Z,100.00
2023-04-16T03:36:44.840Z,100.00
2023-04-16T03:37:44.856Z,100.00
2023-04-16T03:38:44.834Z,100.00
2023-04-16T03:39:44.805Z,100.00
2023-04-16T03:40:44.840Z,100.00
2023-04-16T03:41:44.827Z,100.00
2023-04-16T03:42:44.777Z,100.00
2023-04-16T03:43:44.777Z,100.00
2023-04-16T03:44:44.765Z,100.00
2023-04-16T03:45:44.759Z,100.00
2023-04-16T03:46:44.743Z,100.00
2023-04-16T03:47:44.774Z,100.00
2023-04-16T03:48:44.701Z,100.00
2023-04-16T03:49:44.697Z,100.00
2023-04-16T03:50:44.667Z,100.00
2023-04-16T03:51:44.684Z,100.00
2023-04-16T03:52:44.672Z,100.00
2023-04-16T03:53:44.734Z,100.00
2023-04-16T03:54:44.620Z,100.00
2023-04-16T03:55:44.629Z,100.00
2023-04-16T03:56:44.623Z,100.00
2023-04-16T03:57:44.584Z,100.00
2023-04-16T03:58:44.583Z,100.00
2023-04-16T03:59:44.555Z,100.00
2023-04-16T04:00:44.540Z,100.00
2023-04-16T04:01:44.554Z,100.00
2023-04-16T04:02:44.749Z,100.00
2023-04-16T04:03:44.706Z,100.00
2023-04-16T04:04:44.665Z,100.00
2023-04-16T04:05:44.468Z,100.00
2023-04-16T04:06:44.455Z,100.00
2023-04-16T04:07:44.488Z,100.00
2023-04-16T04:08:44.510Z,100.00
2023-04-16T04:09:44.438Z,100.00
2023-04-16T04:10:44.449Z,100.00
2023-04-16T04:11:44.428Z,100.00
2023-04-16T04:12:44.406Z,100.00
2023-04-16T04:13:44.410Z,100.00
2023-04-16T04:14:44.363Z,100.00
2023-04-16T04:15:44.344Z,100.00
2023-04-16T04:16:44.470Z,100.00
2023-04-16T04:17:44.338Z,100.00
2023-04-16T04:18:44.556Z,100.00
2023-04-16T04:19:54.277Z,100.00
2023-04-16T04:20:44.302Z,100.00
2023-04-16T04:21:44.291Z,100.00
2023-04-16T04:22:44.278Z,100.00
2023-04-16T04:23:44.250Z,100.00
2023-04-16T04:24:44.257Z,100.00
2023-04-16T04:25:44.235Z,100.00
2023-04-16T04:26:44.248Z,100.00
2023-04-16T04:27:44.227Z,100.00
2023-04-16T04:28:44.192Z,100.00
2023-04-16T04:29:44.196Z,100.00
2023-04-16T04:30:44.154Z,100.00
2023-04-16T04:31:44.178Z,100.00
2023-04-16T04:32:44.183Z,100.00
2023-04-16T04:33:44.150Z,100.00
2023-04-16T04:34:44.139Z,100.00
2023-04-16T04:35:44.088Z,100.00
2023-04-16T04:36:44.079Z,100.00
2023-04-16T04:37:44.087Z,100.00
2023-04-16T04:38:44.046Z,100.00
2023-04-16T04:39:44.057Z,100.00
2023-04-16T04:40:44.031Z,100.00
2023-04-16T04:41:44.008Z,100.00
2023-04-16T04:42:43.995Z,100.00
2023-04-16T04:43:44.033Z,100.00
2023-04-16T04:44:43.982Z,100.00
2023-04-16T04:45:43.998Z,100.00
2023-04-16T04:46:43.943Z,100.00
2023-04-16T04:47:43.973Z,100.00
2023-04-16T04:48:43.941Z,100.00
2023-04-16T04:49:43.921Z,100.00
2023-04-16T04:50:43.909Z,100.00
2023-04-16T04:51:43.904Z,100.00
2023-04-16T04:52:43.912Z,100.00
2023-04-16T04:53:43.943Z,100.00
2023-04-16T04:54:43.937Z,100.00
2023-04-16T04:55:43.868Z,100.00
2023-04-16T04:56:43.829Z,100.00
2023-04-16T04:57:43.799Z,100.00
2023-04-16T04:58:43.837Z,100.00
2023-04-16T04:59:43.791Z,100.00
2023-04-16T05:00:43.874Z,100.00
2023-04-16T05:01:43.785Z,100.00
2023-04-16T05:02:43.866Z,100.00
2023-04-16T05:03:43.788Z,100.00
2023-04-16T05:04:43.772Z,100.00
2023-04-16T05:05:43.710Z,100.00
2023-04-16T05:06:43.729Z,100.00
2023-04-16T05:07:43.713Z,100.00
2023-04-16T05:08:43.685Z,100.00
2023-04-16T05:09:43.669Z,100.00
2023-04-16T05:10:43.672Z,100.00
2023-04-16T05:11:43.655Z,100.00
2023-04-16T05:12:43.615Z,100.00
2023-04-16T05:13:43.615Z,100.00
2023-04-16T05:14:43.612Z,100.00
2023-04-16T05:15:43.640Z,100.00
2023-04-16T05:16:43.628Z,100.00
2023-04-16T05:17:43.602Z,100.00
2023-04-16T05:18:43.540Z,100.00
2023-04-16T05:19:43.524Z,100.00
2023-04-16T05:20:43.545Z,100.00
2023-04-16T05:21:43.530Z,100.00
2023-04-16T05:22:43.530Z,100.00
2023-04-16T05:23:43.502Z,100.00
2023-04-16T05:24:43.524Z,100.00
2023-04-16T05:25:43.502Z,100.00
2023-04-16T05:26:43.458Z,100.00
2023-04-16T05:27:43.490Z,100.00
2023-04-16T05:28:43.433Z,100.00
2023-04-16T05:29:43.426Z,100.00
2023-04-16T05:30:43.438Z,100.00
2023-04-16T05:31:43.397Z,100.00
2023-04-16T05:32:43.429Z,100.00
2023-04-16T05:33:43.379Z,100.00
2023-04-16T05:34:43.342Z,100.00
2023-04-16T05:35:43.338Z,100.00
2023-04-16T05:36:43.342Z,100.00
2023-04-16T05:37:43.318Z,100.00
2023-04-16T05:38:43.382Z,100.00
2023-04-16T05:39:43.319Z,100.00
2023-04-16T05:40:43.300Z,100.00
2023-04-16T05:41:43.266Z,100.00
2023-04-16T05:42:43.239Z,100.00
2023-04-16T05:43:43.232Z,100.00
2023-04-16T05:44:43.241Z,100.00
2023-04-16T05:45:43.294Z,100.00
2023-04-16T05:46:43.256Z,100.00
2023-04-16T05:47:43.227Z,100.00
2023-04-16T05:48:43.188Z,100.00
2023-04-16T05:49:43.170Z,100.00
2023-04-16T05:50:44.076Z,100.00
2023-04-16T05:51:43.192Z,100.00
2023-04-16T05:52:43.202Z,100.00
2023-04-16T05:53:43.109Z,100.00
2023-04-16T05:54:43.109Z,100.00
2023-04-16T05:55:43.104Z,100.00
2023-04-16T05:56:43.090Z,100.00
2023-04-16T05:57:43.075Z,100.00
2023-04-16T05:58:43.082Z,100.00
2023-04-16T05:59:43.044Z,100.00
2023-04-16T06:00:43.079Z,100.00
2023-04-16T06:01:43.058Z,100.00
2023-04-16T06:02:43.137Z,100.00
2023-04-16T06:03:43.049Z,100.00
2023-04-16T06:04:43.023Z,100.00
2023-04-16T06:05:43.018Z,100.00
2023-04-16T06:06:42.963Z,100.00
2023-04-16T06:07:42.956Z,100.00
2023-04-16T06:08:42.950Z,100.00
2023-04-16T06:09:42.948Z,100.00
2023-04-16T06:10:42.911Z,100.00
2023-04-16T06:11:42.901Z,100.00
2023-04-16T06:12:42.925Z,100.00
2023-04-16T06:13:42.859Z,100.00
2023-04-16T06:14:42.833Z,100.00
2023-04-16T06:15:42.894Z,100.00
2023-04-16T06:16:43.565Z,100.00
2023-04-16T06:17:42.837Z,100.00
2023-04-16T06:18:42.785Z,100.00
2023-04-16T06:19:42.778Z,100.00
2023-04-16T06:20:42.765Z,100.00
2023-04-16T06:21:42.788Z,100.00
2023-04-16T06:22:42.766Z,100.00
2023-04-16T06:23:42.759Z,100.00
2023-04-16T06:24:42.729Z,100.00
2023-04-16T06:25:42.725Z,100.00
2023-04-16T06:26:42.725Z,100.00
2023-04-16T06:30:26.517Z,100.00
2023-04-16T06:30:32.356Z,100.00
2023-04-16T06:31:32.394Z,100.00
2023-04-16T06:32:32.368Z,99.97
2023-04-16T06:33:32.355Z,100.00
2023-04-16T06:34:32.324Z,100.00
2023-04-16T06:35:32.312Z,100.00
2023-04-16T06:36:32.281Z,100.00
2023-04-16T06:37:32.285Z,100.00
2023-04-16T06:38:32.271Z,100.00
2023-04-16T06:39:32.262Z,100.00
2023-04-16T06:40:32.248Z,100.00
2023-04-16T06:41:32.221Z,100.00
2023-04-16T06:42:32.231Z,100.00
2023-04-16T06:43:32.208Z,100.00
2023-04-16T06:44:32.213Z,100.00
2023-04-16T06:45:32.293Z,100.00
2023-04-16T06:46:32.200Z,100.00
2023-04-16T06:47:32.178Z,100.00
2023-04-16T06:48:32.177Z,100.00
2023-04-16T06:49:32.110Z,99.94
2023-04-16T06:50:32.175Z,99.83
2023-04-16T06:51:32.087Z,99.90
2023-04-16T06:52:32.120Z,99.87
2023-04-16T06:53:32.107Z,99.82
2023-04-16T06:54:32.050Z,99.85
2023-04-16T06:55:32.061Z,99.96
2023-04-16T06:56:32.041Z,99.98
2023-04-16T06:57:32.011Z,100.00
2023-04-16T06:58:32.007Z,100.00
2023-04-16T06:59:32.020Z,100.00
2023-04-16T07:00:32.007Z,100.00
2023-04-16T07:01:32.014Z,100.00
2023-04-16T07:02:32.169Z,99.92
2023-04-16T07:03:32.077Z,99.83
2023-04-16T07:04:31.975Z,99.76
2023-04-16T07:05:31.922Z,99.58
2023-04-16T07:06:31.920Z,99.62
2023-04-16T07:07:31.917Z,99.63
2023-04-16T07:08:31.949Z,99.61
2023-04-16T07:09:31.908Z,99.73
2023-04-16T07:10:31.855Z,99.65
2023-04-16T07:11:31.859Z,99.67
2023-04-16T07:12:31.833Z,99.79
2023-04-16T07:13:31.826Z,99.95
2023-04-16T07:14:32.559Z,100.00
2023-04-16T07:15:31.811Z,100.00
2023-04-16T07:16:31.822Z,100.00
2023-04-16T07:17:31.780Z,99.94
2023-04-16T07:18:31.767Z,99.89
2023-04-16T07:19:31.774Z,99.98
2023-04-16T07:20:31.773Z,99.94
2023-04-16T07:21:31.710Z,99.93
2023-04-16T07:22:31.736Z,99.94
2023-04-16T07:23:31.674Z,99.93
2023-04-16T07:24:31.920Z,99.95
2023-04-16T07:25:31.655Z,99.97
2023-04-16T07:26:31.674Z,99.90
2023-04-16T07:27:31.646Z,99.86
2023-04-16T07:28:31.625Z,99.75
2023-04-16T07:29:31.852Z,99.73
2023-04-16T07:30:31.632Z,99.64
2023-04-16T07:31:31.736Z,99.62
2023-04-16T07:32:31.624Z,99.34
2023-04-16T07:33:31.555Z,99.25
2023-04-16T07:34:31.557Z,99.17
2023-04-16T07:35:31.548Z,99.33
2023-04-16T07:36:31.544Z,99.43
2023-04-16T07:37:31.511Z,99.34
2023-04-16T07:38:31.573Z,99.14
2023-04-16T07:39:31.487Z,98.86
2023-04-16T07:40:31.487Z,98.99
2023-04-16T07:41:31.470Z,99.05
2023-04-16T07:42:31.491Z,98.40
2023-04-16T07:43:31.426Z,98.68
2023-04-16T07:44:31.547Z,98.89
2023-04-16T07:45:31.442Z,98.94
2023-04-16T07:46:45.718Z,99.03
2023-04-16T07:47:31.415Z,98.85
2023-04-16T07:48:31.381Z,98.82
2023-04-16T07:49:31.344Z,98.81
2023-04-16T07:50:31.390Z,98.62
2023-04-16T07:51:31.369Z,98.56
2023-04-16T07:52:31.325Z,98.13
2023-04-16T07:53:31.287Z,98.14
2023-04-16T07:54:31.348Z,98.32
2023-04-16T07:55:31.272Z,98.11
2023-04-16T07:56:31.310Z,97.84
2023-04-16T07:57:31.273Z,97.20
2023-04-16T07:58:31.245Z,97.44
2023-04-16T07:59:31.242Z,97.64
2023-04-16T08:00:31.231Z,97.89
2023-04-16T08:01:31.215Z,97.90
2023-04-16T08:02:31.308Z,97.52
2023-04-16T08:03:31.409Z,97.85
2023-04-16T08:04:31.351Z,97.86
2023-04-16T08:05:31.147Z,97.28
2023-04-16T08:06:31.138Z,97.55
2023-04-16T08:07:32.798Z,97.73
2023-04-16T08:08:31.148Z,97.82
2023-04-16T08:09:31.101Z,97.70
2023-04-16T08:10:31.088Z,97.03
2023-04-16T08:11:31.099Z,96.67
2023-04-16T08:12:31.069Z,96.82
2023-04-16T08:13:33.419Z,97.34
2023-04-16T08:14:31.088Z,97.58
2023-04-16T08:15:31.065Z,97.23
2023-04-16T08:16:30.998Z,97.18
2023-04-16T08:17:31.050Z,97.17
2023-04-16T08:18:31.021Z,96.41
2023-04-16T08:19:30.976Z,96.44
2023-04-16T08:20:30.976Z,96.84
2023-04-16T08:21:30.953Z,96.37
2023-04-16T08:22:30.935Z,96.33
2023-04-16T08:23:30.942Z,96.57
2023-04-16T08:24:30.894Z,96.88
2023-04-16T08:25:30.882Z,97.33
2023-04-16T08:26:30.924Z,97.34
2023-04-16T08:27:30.875Z,96.90
2023-04-16T08:28:30.862Z,97.06
2023-04-16T08:29:30.845Z,97.13
2023-04-16T08:30:30.821Z,97.55
2023-04-16T08:31:30.851Z,97.63
2023-04-16T08:32:30.868Z,97.39
2023-04-16T08:33:30.821Z,97.61
2023-04-16T08:34:30.780Z,97.65
2023-04-16T08:35:30.783Z,96.71
2023-04-16T08:36:30.752Z,96.40
2023-04-16T08:37:30.744Z,96.72
2023-04-16T08:38:30.843Z,96.63
2023-04-16T08:39:30.740Z,96.69
2023-04-16T08:40:30.706Z,96.88
2023-04-16T08:41:30.716Z,96.70
2023-04-16T08:42:30.708Z,96.79
2023-04-16T08:43:30.676Z,96.76
2023-04-16T08:44:30.769Z,96.63
2023-04-16T08:45:30.632Z,95.86
2023-04-16T08:46:30.638Z,96.30
2023-04-16T08:47:30.646Z,96.52
2023-04-16T08:48:30.596Z,96.64
2023-04-16T08:49:30.575Z,96.19
2023-04-16T08:50:30.621Z,96.51
2023-04-16T08:51:30.569Z,96.96
2023-04-16T08:52:30.596Z,96.48
2023-04-16T08:53:30.553Z,95.39
2023-04-16T08:54:30.526Z,95.47
2023-04-16T08:55:30.542Z,95.23
2023-04-16T08:56:30.487Z,95.23
2023-04-16T08:57:30.551Z,95.35
2023-04-16T08:58:30.466Z,96.08
2023-04-16T08:59:30.474Z,96.73
2023-04-16T09:00:30.494Z,96.89
2023-04-16T09:01:30.454Z,96.35
2023-04-16T09:02:30.615Z,96.32
2023-04-16T09:03:30.504Z,96.59
2023-04-16T09:04:30.530Z,96.78
2023-04-16T09:05:30.398Z,96.21
2023-04-16T09:06:30.389Z,96.59
2023-04-16T09:07:30.352Z,96.38
2023-04-16T09:08:30.342Z,95.63
2023-04-16T09:09:30.327Z,95.71
2023-04-16T09:10:30.320Z,95.86
2023-04-16T09:11:30.313Z,95.68
2023-04-16T09:12:30.286Z,95.64
2023-04-16T09:13:30.278Z,95.08
2023-04-16T09:14:30.288Z,95.01
2023-04-16T09:15:30.255Z,95.42
2023-04-16T09:16:30.343Z,96.04
2023-04-16T09:17:30.309Z,96.30
2023-04-16T09:18:30.213Z,96.67
2023-04-16T09:19:30.224Z,96.92
2023-04-16T09:20:30.193Z,96.83
2023-04-16T09:21:30.222Z,97.08
2023-04-16T09:22:30.164Z,96.38
2023-04-16T09:23:30.186Z,96.41
2023-04-16T09:24:30.150Z,96.62
2023-04-16T09:25:30.121Z,96.67
2023-04-16T09:26:30.131Z,96.57
2023-04-16T09:27:30.108Z,96.63
2023-04-16T09:28:30.122Z,96.70
2023-04-16T09:29:30.092Z,96.73
2023-04-16T09:30:30.077Z,96.07
2023-04-16T09:31:30.074Z,96.39
2023-04-16T09:32:30.068Z,96.19
2023-04-16T09:33:30.014Z,95.94
2023-04-16T09:34:30.027Z,95.27
2023-04-16T09:35:30.022Z,94.61
2023-04-16T09:36:29.989Z,95.34
2023-04-16T09:37:29.976Z,96.22
2023-04-16T09:38:30.592Z,96.54
2023-04-16T09:39:29.968Z,96.73
2023-04-16T09:40:29.931Z,96.50
2023-04-16T09:41:29.958Z,96.05
2023-04-16T09:42:29.912Z,95.98
2023-04-16T09:43:29.889Z,95.97
2023-04-16T09:44:29.885Z,95.12
2023-04-16T09:45:29.899Z,95.63
2023-04-16T09:46:29.993Z,96.07
2023-04-16T09:47:29.893Z,96.10
2023-04-16T09:48:29.871Z,96.07
2023-04-16T09:49:29.821Z,96.08
2023-04-16T09:50:29.818Z,96.11
2023-04-16T09:51:29.795Z,96.28
2023-04-16T09:52:29.822Z,96.49
2023-04-16T09:53:29.812Z,95.77
2023-04-16T09:54:29.775Z,95.42
2023-04-16T09:55:29.764Z,95.61
2023-04-16T09:56:30.550Z,95.67
2023-04-16T09:57:29.762Z,95.71
2023-04-16T09:58:29.768Z,95.35
2023-04-16T09:59:29.699Z,95.32
2023-04-16T10:00:29.712Z,94.77
2023-04-16T10:01:29.824Z,95.04
2023-04-16T10:02:29.725Z,95.59
2023-04-16T10:03:29.817Z,96.12
2023-04-16T10:04:29.702Z,96.23
2023-04-16T10:05:29.628Z,95.81
2023-04-16T10:06:29.613Z,95.28
2023-04-16T10:07:29.593Z,95.31
2023-04-16T10:08:29.621Z,95.00
2023-04-16T10:09:29.557Z,94.51
2023-04-16T10:10:29.586Z,94.43
2023-04-16T10:11:29.545Z,94.08
2023-04-16T10:12:29.525Z,95.10
2023-04-16T10:13:29.511Z,94.43
2023-04-16T10:14:29.502Z,95.38
2023-04-16T10:15:29.511Z,95.35
2023-04-16T10:16:29.530Z,95.00
2023-04-16T10:17:29.480Z,94.32
2023-04-16T10:18:29.428Z,94.98
2023-04-16T10:19:29.433Z,95.73
2023-04-16T10:20:29.438Z,95.98
2023-04-16T10:21:29.476Z,96.06
2023-04-16T10:22:29.399Z,95.62
2023-04-16T10:23:29.376Z,95.60
2023-04-16T10:24:29.374Z,96.14
2023-04-16T10:25:29.406Z,95.93
2023-04-16T10:26:29.366Z,95.70
2023-04-16T10:27:29.346Z,95.73
2023-04-16T10:28:29.317Z,95.50
2023-04-16T10:29:29.309Z,94.53
2023-04-16T10:30:29.335Z,94.65
2023-04-16T10:31:29.465Z,95.34
2023-04-16T10:32:29.298Z,94.96
2023-04-16T10:33:29.280Z,95.07
2023-04-16T10:34:29.250Z,95.30
2023-04-16T10:35:29.245Z,95.71
2023-04-16T10:36:29.242Z,95.02
2023-04-16T10:37:29.237Z,95.05
2023-04-16T10:38:29.198Z,95.24
2023-04-16T10:39:29.174Z,94.96
2023-04-16T10:40:29.170Z,94.28
2023-04-16T10:41:29.188Z,93.74
2023-04-16T10:42:29.144Z,93.68
2023-04-16T10:43:29.162Z,93.79
2023-04-16T10:44:29.104Z,93.41
2023-04-16T10:45:29.097Z,92.98
2023-04-16T10:46:29.132Z,93.53
2023-04-16T10:47:29.170Z,93.76
2023-04-16T10:48:35.725Z,92.01
2023-04-16T10:49:29.084Z,92.57
2023-04-16T10:50:29.043Z,92.13
2023-04-16T10:51:29.035Z,92.83
2023-04-16T10:52:29.021Z,93.18
2023-04-16T10:53:29.003Z,93.31
2023-04-16T10:54:29.006Z,93.04
2023-04-16T10:55:28.993Z,92.70
2023-04-16T10:56:29.031Z,92.61
2023-04-16T10:57:28.933Z,93.06
2023-04-16T10:58:28.928Z,93.45
2023-04-16T10:59:28.907Z,93.72
2023-04-16T11:00:28.944Z,94.08
2023-04-16T11:01:28.923Z,93.90
2023-04-16T11:02:29.237Z,93.48
2023-04-16T11:03:29.013Z,93.25
2023-04-16T11:04:28.926Z,93.78
2023-04-16T11:05:28.852Z,94.29
2023-04-16T11:06:28.839Z,93.70
2023-04-16T11:07:28.830Z,92.61
2023-04-16T11:08:28.859Z,93.34
2023-04-16T11:09:28.776Z,93.45
2023-04-16T11:10:28.792Z,93.52
2023-04-16T11:11:28.759Z,93.55
2023-04-16T11:12:28.750Z,93.64
2023-04-16T11:13:28.754Z,93.29
2023-04-16T11:14:28.714Z,93.08
2023-04-16T11:15:28.722Z,93.71
2023-04-16T11:16:28.724Z,92.90
2023-04-16T11:17:28.699Z,93.55
2023-04-16T11:18:28.685Z,93.94
2023-04-16T11:19:28.680Z,94.38
2023-04-16T11:20:28.643Z,93.99
2023-04-16T11:21:28.672Z,93.22
2023-04-16T11:22:28.624Z,93.49
2023-04-16T11:23:28.625Z,94.07
2023-04-16T11:24:28.606Z,93.81
2023-04-16T11:25:28.578Z,93.27
2023-04-16T11:26:28.605Z,93.53
2023-04-16T11:27:28.599Z,93.75
2023-04-16T11:28:28.537Z,93.72
2023-04-16T11:29:28.520Z,93.31
2023-04-16T11:30:28.518Z,93.15
2023-04-16T11:31:28.538Z,93.09
2023-04-16T11:32:28.579Z,92.45
2023-04-16T11:33:28.524Z,93.03
2023-04-16T11:34:28.478Z,92.61
2023-04-16T11:35:28.465Z,92.22
2023-04-16T11:36:28.475Z,92.34
2023-04-16T11:37:28.439Z,93.13
2023-04-16T11:38:28.432Z,93.76
2023-04-16T11:39:28.460Z,92.71
2023-04-16T11:40:28.383Z,91.91
2023-04-16T11:41:28.402Z,92.03
2023-04-16T11:42:28.507Z,93.08
2023-04-16T11:43:28.345Z,93.67
2023-04-16T11:44:28.360Z,93.74
2023-04-16T11:45:28.338Z,91.97
2023-04-16T11:46:28.392Z,92.65
2023-04-16T11:47:28.350Z,93.67
2023-04-16T11:48:28.286Z,93.74
2023-04-16T11:49:28.291Z,93.54
2023-04-16T11:50:28.347Z,92.80
2023-04-16T11:51:28.242Z,93.30
2023-04-16T11:52:28.254Z,92.11
2023-04-16T11:53:28.228Z,92.13
2023-04-16T11:54:28.232Z,91.20
2023-04-16T11:55:28.209Z,91.07
2023-04-16T11:56:28.200Z,90.37
2023-04-16T11:57:28.181Z,91.66
2023-04-16T11:58:28.170Z,91.69
2023-04-16T11:59:28.174Z,91.44
2023-04-16T12:00:28.174Z,91.33
2023-04-16T12:01:28.115Z,91.57
2023-04-16T12:02:28.227Z,90.56
2023-04-16T12:03:28.290Z,91.11
2023-04-16T12:04:28.158Z,90.74
2023-04-16T12:05:28.068Z,91.87
2023-04-16T12:06:28.049Z,91.12
2023-04-16T12:07:28.076Z,90.38
2023-04-16T12:08:28.053Z,90.84
2023-04-16T12:09:28.006Z,90.14
2023-04-16T12:10:28.017Z,91.03
2023-04-16T12:11:27.988Z,91.13
2023-04-16T12:12:28.100Z,91.78
2023-04-16T12:13:28.087Z,90.86
2023-04-16T12:14:27.985Z,90.80
2023-04-16T12:15:27.976Z,91.87
2023-04-16T12:16:27.956Z,91.30
2023-04-16T12:17:27.938Z,91.88
2023-04-16T12:18:27.960Z,90.96
2023-04-16T12:19:27.918Z,90.03
2023-04-16T12:20:27.883Z,89.31
2023-04-16T12:21:27.875Z,88.98
2023-04-16T12:22:27.845Z,89.76
2023-04-16T12:23:27.850Z,90.12
2023-04-16T12:24:27.832Z,90.40
2023-04-16T12:25:27.828Z,89.66
2023-04-16T12:26:27.846Z,89.84
2023-04-16T12:27:27.781Z,90.07
2023-04-16T12:28:27.812Z,89.51
2023-04-16T12:29:27.774Z,88.87
2023-04-16T12:30:27.752Z,89.55
2023-04-16T12:31:27.860Z,89.89
2023-04-16T12:32:27.787Z,89.11
2023-04-16T12:33:27.711Z,89.46
2023-04-16T12:34:36.547Z,89.68
2023-04-16T12:35:27.682Z,89.37
2023-04-16T12:36:27.670Z,88.14
2023-04-16T12:37:27.709Z,89.34
2023-04-16T12:38:27.717Z,89.42
2023-04-16T12:39:27.681Z,90.22
2023-04-16T12:40:27.666Z,89.44
2023-04-16T12:41:27.611Z,89.73
2023-04-16T12:42:27.741Z,90.04
2023-04-16T12:43:27.647Z,90.16